KMOR/MOR METAR and TAF weather

Enter ICAO airport designator
Station Type Date Time Source
KMOR METAR 2019/10/19 08:15 UTC NOAA

KMOR 190815Z AUTO 00000KT 10SM CLR 09/05 A2995 RMK A01


Station Type Date Time Source
KMOR Decoded METAR 2019/10/19 08:15 UTC NOAA

Station name not available
Oct 19, 2019 - 04:15 AM EDT / 2019.10.19 0815 UTC
Wind: Calm:0
Visibility: 10 mile(s):0
Sky conditions: clear
Temperature: 48 F (9 C)
Dew Point: 41 F (5 C)
Relative Humidity: 75%
Pressure (altimeter): 29.95 in. Hg (1014 hPa)
ob: KMOR 190815Z AUTO 00000KT 10SM CLR 09/05 A2995 RMK A01
cycle: 8

Station Type Date Time Source
KMOR TAF UTC NOAA

Error!

Example: see airport list